Jardines Del Rey Airport
MUCC : rendu visible

Aérodrome :











RETROUVEZ-NOUS SUR...

 
LOGIN :

S'inscrire | Disclaimer

   EN    FR    IT 

 









Légende :    VFR   VFR Marginal   IFR   IFR Intensif   IFR Très Intensif
Visi : 
Plafond : 
>= 8 km
>= 3000ft
5 à 8 km
1000 à 3000 ft
1500m à 5 km
500 à 1000 ft
800 à 1500m
200 à 500 ft
< 800m
< 200 ft
Symboles :   Orages  Brouillard  Fortes neiges  Fortes précipitations  Vent > 20 kt






- Altitude de l'aérodrome : 13 ft


MUCC - Jardines Del Rey

DERNIER METAR :
  • 211050Z 05004KT 9000 SCT020 22/21 Q1015

METARs EXPIRÉS :
  • 210950Z 01004KT 9000 SCT020 20/20 Q1015
  • 210850Z VRB01KT 9000 SCT020 18/18 Q1015

TAF MUCC
Valide du 21 à 06h jusqu'au 22 à 06h UTC


210500Z 2106/2206 01008KT 9000 SCT020
TEMPO 2106/2112 VRB03KT
BECMG 2114/2117 36012KT
TEMPO 2118/2124 VRB10KT 5000 SHRA BKN020



MET'MAP, la Météo Aéronautique d'un coup d'oeil ! - Copyright ORBIFLY Décembre 2007 - Disclaimer

ORBIFLY MET'MAP TEAM :

Programmation & Développement : Alexandra Zaïnal
Sur une idée originale de : Baudouin d'Aumeries
Assistance à la programmation : Marc-Olivier Méhu
Soutien technique & logistique : Manuel Goepfert

Contact : metmap@orbifly.com




SOURCES & CREDITS :

   NOAA       Earth
Advisory